createdAt,value
2022-09-17T00:03:02.304Z,99071.80
2022-09-17T00:14:06.363Z,99076.98
2022-09-17T00:24:22.953Z,99079.89
2022-09-17T00:34:55.095Z,99080.48
2022-09-17T00:45:08.977Z,99083.33
2022-09-17T00:55:51.778Z,99089.34
2022-09-17T01:06:43.724Z,99092.43
2022-09-17T01:18:06.957Z,99092.84
2022-09-17T01:29:11.618Z,99090.77
2022-09-17T01:40:09.342Z,99091.16
2022-09-17T01:51:14.591Z,99091.56
2022-09-17T02:01:56.779Z,99087.14
2022-09-17T02:13:06.802Z,99092.92
2022-09-17T02:23:50.682Z,99088.45
2022-09-17T02:34:40.408Z,99086.92
2022-09-17T02:45:48.008Z,99084.14
2022-09-17T02:56:55.628Z,99085.33
2022-09-17T03:08:01.865Z,99086.17
2022-09-17T03:18:08.251Z,99083.51
2022-09-17T03:28:53.870Z,99081.41
2022-09-17T03:39:03.198Z,99082.91
2022-09-17T03:49:12.225Z,99075.40
2022-09-17T03:59:36.058Z,99080.05
2022-09-17T04:09:41.889Z,99074.09
2022-09-17T04:20:48.586Z,99071.06
2022-09-17T04:31:18.043Z,99074.30
2022-09-17T04:41:52.104Z,99076.36
2022-09-17T04:52:26.504Z,99071.46
2022-09-17T05:02:49.865Z,99076.86
2022-09-17T05:12:56.090Z,99081.56
2022-09-17T05:23:35.497Z,99092.88
2022-09-17T05:34:11.826Z,99094.69
2022-09-17T05:44:42.628Z,99079.75
2022-09-17T05:54:53.768Z,99078.34
2022-09-17T06:05:58.227Z,99070.70
2022-09-17T06:16:23.576Z,99061.11
2022-09-17T06:26:55.228Z,99047.53
2022-09-17T06:37:28.810Z,99049.11
2022-09-17T06:48:07.482Z,99040.73
2022-09-17T06:58:16.551Z,99044.22
2022-09-17T07:08:38.267Z,99063.36
2022-09-17T07:18:47.529Z,99076.33
2022-09-17T07:28:56.468Z,99080.90
2022-09-17T07:39:17.232Z,99087.52
2022-09-17T07:49:24.061Z,99098.00
2022-09-17T07:59:37.752Z,99095.52
2022-09-17T08:10:02.272Z,99098.22
2022-09-17T08:20:29.336Z,99096.64
2022-09-17T08:30:37.781Z,99102.18
2022-09-17T08:41:06.132Z,99123.47
2022-09-17T08:51:26.336Z,99118.09
2022-09-17T09:02:35.554Z,99121.69
2022-09-17T09:12:43.506Z,99126.75
2022-09-17T09:23:03.196Z,99129.41
2022-09-17T09:33:59.706Z,99128.86
2022-09-17T09:44:36.107Z,99115.32
2022-09-17T09:55:40.088Z,99115.50
2022-09-17T10:05:55.008Z,99116.59
2022-09-17T10:16:56.659Z,99112.63
2022-09-17T10:27:14.205Z,99127.61
2022-09-17T10:37:48.051Z,99139.51
2022-09-17T10:47:52.086Z,99149.14
2022-09-17T10:58:23.993Z,99168.10
2022-09-17T11:08:41.140Z,99181.05
2022-09-17T11:19:18.879Z,99167.76
2022-09-17T11:29:54.573Z,99148.68
2022-09-17T11:40:12.420Z,99147.41
2022-09-17T11:50:31.812Z,99139.23
2022-09-17T12:00:55.780Z,99144.70
2022-09-17T12:11:22.155Z,99151.63
2022-09-17T12:21:38.955Z,99143.05
2022-09-17T12:32:15.044Z,99143.78
2022-09-17T12:43:06.210Z,99145.31
2022-09-17T12:53:50.976Z,99135.28
2022-09-17T13:09:05.619Z,99123.80
2022-09-17T13:19:54.589Z,99130.05
2022-09-17T13:30:11.807Z,99132.54
2022-09-17T13:40:34.647Z,99137.23
2022-09-17T13:51:50.172Z,99135.67
2022-09-17T14:03:00.272Z,99136.50
2022-09-17T14:13:44.390Z,99122.27
2022-09-17T14:24:16.243Z,99112.21
2022-09-17T14:34:40.177Z,99112.19
2022-09-17T14:45:11.182Z,99109.74
2022-09-17T14:55:31.517Z,99116.70
2022-09-17T15:05:53.902Z,99121.91
2022-09-17T15:27:18.695Z,99114.96
2022-09-17T15:38:21.283Z,99104.71
2022-09-17T15:48:43.079Z,99118.84
2022-09-17T15:59:30.088Z,99116.84
2022-09-17T16:10:45.254Z,99139.38
2022-09-17T16:21:17.794Z,99130.77
2022-09-17T16:31:51.697Z,99135.19
2022-09-17T16:53:46.318Z,99122.33
2022-09-17T17:04:28.501Z,99134.92
2022-09-17T17:15:09.313Z,99133.64
2022-09-17T17:25:32.510Z,99131.55
2022-09-17T17:35:46.887Z,99124.72
2022-09-17T17:46:24.166Z,99122.09
2022-09-17T17:57:01.527Z,99123.55
2022-09-17T18:07:15.941Z,99123.90
2022-09-17T18:17:44.521Z,99126.48
2022-09-17T18:28:30.237Z,99144.88
2022-09-17T18:39:15.542Z,99142.95
2022-09-17T18:49:58.773Z,99141.78
2022-09-17T19:00:11.400Z,99130.92
2022-09-17T19:10:26.749Z,99119.99
2022-09-17T19:21:06.969Z,99109.04
2022-09-17T19:31:48.326Z,99100.23
2022-09-17T19:42:12.383Z,99095.98
2022-09-17T19:52:56.566Z,99091.50
2022-09-17T20:03:48.643Z,99091.00
2022-09-17T20:14:21.823Z,99097.73
2022-09-17T20:24:38.226Z,99091.98
2022-09-17T20:35:24.548Z,99092.27
2022-09-17T20:46:35.591Z,99086.48
2022-09-17T20:56:48.395Z,99092.76
2022-09-17T21:07:33.211Z,99088.98
2022-09-17T21:18:15.845Z,99087.77
2022-09-17T21:28:39.589Z,99080.27
2022-09-17T21:38:57.834Z,99084.52
2022-09-17T21:49:52.359Z,99086.05
2022-09-17T22:00:09.893Z,99085.56
2022-09-17T22:10:20.654Z,99089.29
2022-09-17T22:20:30.453Z,99086.26
2022-09-17T22:30:37.065Z,99078.85
2022-09-17T22:41:27.657Z,99069.13
2022-09-17T22:52:14.513Z,99057.33
2022-09-17T23:02:40.886Z,99057.38
2022-09-17T23:12:44.409Z,99051.35
2022-09-17T23:22:52.589Z,99050.80
2022-09-17T23:33:22.177Z,99045.06
2022-09-17T23:43:53.871Z,99039.45
2022-09-17T23:54:08.455Z,99030.13
